sensor_id;sensor_type;location;lat;lon;timestamp;pressure;altitude;pressure_sealevel;temperature;humidity
1401;BME280;46518;48.842;8.926;2022-07-23T00:01:28;97071.75;;;25.00;49.00
1401;BME280;46518;48.842;8.926;2022-07-23T00:03:57;97072.53;;;25.01;48.50
1401;BME280;46518;48.842;8.926;2022-07-23T00:06:25;97068.22;;;24.84;48.88
1401;BME280;46518;48.842;8.926;2022-07-23T00:08:53;97071.94;;;24.79;49.68
1401;BME280;46518;48.842;8.926;2022-07-23T00:11:22;97063.84;;;24.79;49.16
1401;BME280;46518;48.842;8.926;2022-07-23T00:13:50;97066.31;;;24.84;49.05
1401;BME280;46518;48.842;8.926;2022-07-23T00:16:20;97054.53;;;24.89;48.92
1401;BME280;46518;48.842;8.926;2022-07-23T00:18:50;97055.09;;;24.82;49.57
1401;BME280;46518;48.842;8.926;2022-07-23T00:21:18;97064.31;;;24.81;49.70
1401;BME280;46518;48.842;8.926;2022-07-23T00:23:47;97064.50;;;24.76;49.93
1401;BME280;46518;48.842;8.926;2022-07-23T00:26:15;97058.59;;;24.58;50.51
1401;BME280;46518;48.842;8.926;2022-07-23T00:28:43;97055.44;;;24.56;50.90
1401;BME280;46518;48.842;8.926;2022-07-23T00:31:12;97052.88;;;24.47;50.99
1401;BME280;46518;48.842;8.926;2022-07-23T00:33:42;97061.50;;;24.53;51.22
1401;BME280;46518;48.842;8.926;2022-07-23T00:36:10;97056.72;;;24.46;51.40
1401;BME280;46518;48.842;8.926;2022-07-23T00:38:39;97064.63;;;24.43;51.53
1401;BME280;46518;48.842;8.926;2022-07-23T00:41:07;97050.16;;;24.35;50.96
1401;BME280;46518;48.842;8.926;2022-07-23T00:43:36;97042.88;;;24.36;51.42
1401;BME280;46518;48.842;8.926;2022-07-23T00:46:04;97030.44;;;24.31;51.00
1401;BME280;46518;48.842;8.926;2022-07-23T00:48:33;97037.41;;;24.32;51.60
1401;BME280;46518;48.842;8.926;2022-07-23T00:51:03;97039.88;;;24.25;51.88
1401;BME280;46518;48.842;8.926;2022-07-23T00:53:31;97047.03;;;24.21;51.04
1401;BME280;46518;48.842;8.926;2022-07-23T00:56:00;97040.53;;;24.22;51.35
1401;BME280;46518;48.842;8.926;2022-07-23T00:58:28;97045.25;;;24.25;51.23
1401;BME280;46518;48.842;8.926;2022-07-23T01:00:57;97039.09;;;24.24;51.71
1401;BME280;46518;48.842;8.926;2022-07-23T01:03:25;97036.63;;;24.19;51.36
1401;BME280;46518;48.842;8.926;2022-07-23T01:05:54;97038.06;;;24.17;51.60
1401;BME280;46518;48.842;8.926;2022-07-23T01:08:27;97042.44;;;24.21;51.94
1401;BME280;46518;48.842;8.926;2022-07-23T01:10:56;97039.19;;;24.28;51.82
1401;BME280;46518;48.842;8.926;2022-07-23T01:13:24;97030.44;;;24.31;51.57
1401;BME280;46518;48.842;8.926;2022-07-23T01:15:52;97023.06;;;24.52;50.81
1401;BME280;46518;48.842;8.926;2022-07-23T01:18:21;97042.00;;;24.56;50.69
1401;BME280;46518;48.842;8.926;2022-07-23T01:20:51;97050.16;;;24.35;52.02
1401;BME280;46518;48.842;8.926;2022-07-23T01:23:21;97033.81;;;24.40;51.98
1401;BME280;46518;48.842;8.926;2022-07-23T01:25:55;97014.88;;;24.61;51.35
1401;BME280;46518;48.842;8.926;2022-07-23T01:28:24;97006.22;;;24.68;51.55
1401;BME280;46518;48.842;8.926;2022-07-23T01:30:54;97008.91;;;24.68;51.47
1401;BME280;46518;48.842;8.926;2022-07-23T01:33:23;97002.41;;;24.69;51.70
1401;BME280;46518;48.842;8.926;2022-07-23T01:35:51;97006.47;;;24.50;52.53
1401;BME280;46518;48.842;8.926;2022-07-23T01:38:25;97008.50;;;24.41;52.17
1401;BME280;46518;48.842;8.926;2022-07-23T01:40:53;97017.00;;;24.31;52.67
1401;BME280;46518;48.842;8.926;2022-07-23T01:43:27;97019.47;;;24.48;52.40
1401;BME280;46518;48.842;8.926;2022-07-23T01:45:56;97021.03;;;24.37;52.10
1401;BME280;46518;48.842;8.926;2022-07-23T01:48:29;97035.91;;;23.98;54.05
1401;BME280;46518;48.842;8.926;2022-07-23T01:51:33;97026.50;;;23.79;54.54
1401;BME280;46518;48.842;8.926;2022-07-23T01:54:08;97027.94;;;23.77;53.33
1401;BME280;46518;48.842;8.926;2022-07-23T01:56:36;97011.88;;;23.68;53.09
1401;BME280;46518;48.842;8.926;2022-07-23T01:59:05;97010.25;;;23.76;52.60
1401;BME280;46518;48.842;8.926;2022-07-23T02:01:33;97002.38;;;23.71;52.66
1401;BME280;46518;48.842;8.926;2022-07-23T02:04:02;97016.69;;;23.62;52.87
1401;BME280;46518;48.842;8.926;2022-07-23T02:06:32;97028.63;;;23.53;53.59
1401;BME280;46518;48.842;8.926;2022-07-23T02:09:00;97037.72;;;23.27;54.43
1401;BME280;46518;48.842;8.926;2022-07-23T02:11:31;97052.06;;;23.10;55.22
1401;BME280;46518;48.842;8.926;2022-07-23T02:13:59;97059.28;;;22.97;55.86
1401;BME280;46518;48.842;8.926;2022-07-23T02:16:27;97065.13;;;22.91;56.27
1401;BME280;46518;48.842;8.926;2022-07-23T02:19:01;97056.41;;;22.94;56.17
1401;BME280;46518;48.842;8.926;2022-07-23T02:21:30;97054.59;;;22.86;56.96
1401;BME280;46518;48.842;8.926;2022-07-23T02:23:58;97059.97;;;22.86;56.73
1401;BME280;46518;48.842;8.926;2022-07-23T02:26:27;97067.28;;;22.76;57.29
1401;BME280;46518;48.842;8.926;2022-07-23T02:28:57;97069.38;;;22.71;57.89
1401;BME280;46518;48.842;8.926;2022-07-23T02:31:26;97065.78;;;22.67;57.79
1401;BME280;46518;48.842;8.926;2022-07-23T02:33:56;97072.13;;;22.62;58.29
1401;BME280;46518;48.842;8.926;2022-07-23T02:36:26;97078.13;;;22.59;58.54
1401;BME280;46518;48.842;8.926;2022-07-23T02:38:55;97069.63;;;22.57;58.70
1401;BME280;46518;48.842;8.926;2022-07-23T02:41:25;97077.03;;;22.51;58.98
1401;BME280;46518;48.842;8.926;2022-07-23T02:43:55;97093.47;;;22.50;59.11
1401;BME280;46518;48.842;8.926;2022-07-23T02:46:25;97103.88;;;22.51;59.14
1401;BME280;46518;48.842;8.926;2022-07-23T02:48:55;97103.75;;;22.48;59.15
1401;BME280;46518;48.842;8.926;2022-07-23T02:51:24;97110.66;;;22.49;59.28
1401;BME280;46518;48.842;8.926;2022-07-23T02:53:57;97118.09;;;22.52;59.63
1401;BME280;46518;48.842;8.926;2022-07-23T02:56:25;97118.19;;;22.64;59.04
1401;BME280;46518;48.842;8.926;2022-07-23T02:58:56;97119.06;;;22.77;58.97
1401;BME280;46518;48.842;8.926;2022-07-23T03:01:27;97113.53;;;22.73;58.81
1401;BME280;46518;48.842;8.926;2022-07-23T03:03:55;97121.56;;;22.82;58.31
1401;BME280;46518;48.842;8.926;2022-07-23T03:06:24;97123.09;;;22.92;57.99
1401;BME280;46518;48.842;8.926;2022-07-23T03:08:52;97118.97;;;22.94;57.68
1401;BME280;46518;48.842;8.926;2022-07-23T03:11:21;97110.28;;;22.89;57.65
1401;BME280;46518;48.842;8.926;2022-07-23T03:13:49;97119.69;;;23.03;57.07
1401;BME280;46518;48.842;8.926;2022-07-23T03:16:19;97113.25;;;23.04;57.06
1401;BME280;46518;48.842;8.926;2022-07-23T03:18:51;97121.41;;;23.08;57.18
1401;BME280;46518;48.842;8.926;2022-07-23T03:21:19;97107.59;;;23.18;56.68
1401;BME280;46518;48.842;8.926;2022-07-23T03:23:47;97110.00;;;23.11;56.97
1401;BME280;46518;48.842;8.926;2022-07-23T03:26:17;97109.69;;;23.13;57.12
1401;BME280;46518;48.842;8.926;2022-07-23T03:28:46;97108.00;;;23.08;56.69
1401;BME280;46518;48.842;8.926;2022-07-23T03:31:14;97113.03;;;23.10;56.98
1401;BME280;46518;48.842;8.926;2022-07-23T03:33:43;97105.03;;;23.01;56.48
1401;BME280;46518;48.842;8.926;2022-07-23T03:36:13;97107.09;;;23.04;56.69
1401;BME280;46518;48.842;8.926;2022-07-23T03:38:44;97103.47;;;23.00;57.04
1401;BME280;46518;48.842;8.926;2022-07-23T03:41:13;97115.34;;;22.90;57.86
1401;BME280;46518;48.842;8.926;2022-07-23T03:43:41;97118.09;;;22.81;57.41
1401;BME280;46518;48.842;8.926;2022-07-23T03:46:11;97114.41;;;22.86;56.92
1401;BME280;46518;48.842;8.926;2022-07-23T03:48:39;97112.72;;;22.81;56.94
1401;BME280;46518;48.842;8.926;2022-07-23T03:51:08;97105.66;;;22.77;57.42
1401;BME280;46518;48.842;8.926;2022-07-23T03:53:38;97116.59;;;22.93;57.20
1401;BME280;46518;48.842;8.926;2022-07-23T03:56:07;97119.28;;;22.93;57.62
1401;BME280;46518;48.842;8.926;2022-07-23T03:58:35;97127.00;;;22.94;57.49
1401;BME280;46518;48.842;8.926;2022-07-23T04:01:04;97130.63;;;22.98;57.19
1401;BME280;46518;48.842;8.926;2022-07-23T04:03:32;97132.50;;;23.07;57.52
1401;BME280;46518;48.842;8.926;2022-07-23T04:06:00;97133.94;;;22.95;58.09
1401;BME280;46518;48.842;8.926;2022-07-23T04:08:30;97131.56;;;22.94;57.58
1401;BME280;46518;48.842;8.926;2022-07-23T04:11:01;97125.41;;;22.93;57.40
1401;BME280;46518;48.842;8.926;2022-07-23T04:13:30;97133.16;;;22.95;57.32
1401;BME280;46518;48.842;8.926;2022-07-23T04:16:01;97126.66;;;22.96;57.30
1401;BME280;46518;48.842;8.926;2022-07-23T04:18:30;97124.16;;;22.99;56.97
1401;BME280;46518;48.842;8.926;2022-07-23T04:21:19;97123.97;;;22.96;56.96
1401;BME280;46518;48.842;8.926;2022-07-23T04:23:48;97128.63;;;22.87;56.72
1401;BME280;46518;48.842;8.926;2022-07-23T04:26:18;97129.13;;;22.80;56.15
1401;BME280;46518;48.842;8.926;2022-07-23T04:28:46;97121.22;;;22.83;55.77
1401;BME280;46518;48.842;8.926;2022-07-23T04:31:15;97111.00;;;22.77;55.16
1401;BME280;46518;48.842;8.926;2022-07-23T04:33:44;97119.53;;;22.79;54.20
1401;BME280;46518;48.842;8.926;2022-07-23T04:36:13;97123.47;;;22.81;54.40
1401;BME280;46518;48.842;8.926;2022-07-23T04:38:41;97121.13;;;22.71;55.68
1401;BME280;46518;48.842;8.926;2022-07-23T04:41:09;97114.16;;;22.49;57.43
1401;BME280;46518;48.842;8.926;2022-07-23T04:43:40;97122.09;;;22.37;58.05
1401;BME280;46518;48.842;8.926;2022-07-23T04:46:08;97122.41;;;22.35;56.36
1401;BME280;46518;48.842;8.926;2022-07-23T04:48:44;97127.47;;;22.28;56.53
1401;BME280;46518;48.842;8.926;2022-07-23T04:51:13;97133.28;;;22.39;55.51
1401;BME280;46518;48.842;8.926;2022-07-23T04:53:42;97140.91;;;22.58;56.37
1401;BME280;46518;48.842;8.926;2022-07-23T04:56:11;97134.91;;;22.61;55.91
1401;BME280;46518;48.842;8.926;2022-07-23T04:58:41;97142.47;;;22.68;55.68
1401;BME280;46518;48.842;8.926;2022-07-23T05:01:10;97143.41;;;22.72;55.87
1401;BME280;46518;48.842;8.926;2022-07-23T05:03:39;97151.56;;;22.75;54.64
1401;BME280;46518;48.842;8.926;2022-07-23T05:06:07;97149.47;;;22.81;54.81
1401;BME280;46518;48.842;8.926;2022-07-23T05:08:36;97160.13;;;22.69;56.03
1401;BME280;46518;48.842;8.926;2022-07-23T05:11:05;97164.56;;;22.65;61.82
1401;BME280;46518;48.842;8.926;2022-07-23T05:13:33;97157.41;;;22.77;62.98
1401;BME280;46518;48.842;8.926;2022-07-23T05:16:06;97155.41;;;23.04;61.83
1401;BME280;46518;48.842;8.926;2022-07-23T05:18:35;97153.44;;;23.13;62.46
1401;BME280;46518;48.842;8.926;2022-07-23T05:21:04;97163.34;;;23.21;62.96
1401;BME280;46518;48.842;8.926;2022-07-23T05:23:33;97153.50;;;23.25;63.05
1401;BME280;46518;48.842;8.926;2022-07-23T05:26:02;97151.75;;;23.30;62.84
1401;BME280;46518;48.842;8.926;2022-07-23T05:28:31;97159.16;;;23.33;63.00
1401;BME280;46518;48.842;8.926;2022-07-23T05:31:00;97173.44;;;23.24;64.90
1401;BME280;46518;48.842;8.926;2022-07-23T05:33:30;97183.28;;;23.41;63.05
1401;BME280;46518;48.842;8.926;2022-07-23T05:36:00;97194.16;;;23.45;63.47
1401;BME280;46518;48.842;8.926;2022-07-23T05:38:32;97195.06;;;23.49;62.84
1401;BME280;46518;48.842;8.926;2022-07-23T05:41:01;97193.69;;;23.43;64.00
1401;BME280;46518;48.842;8.926;2022-07-23T05:43:31;97191.13;;;23.46;63.62
1401;BME280;46518;48.842;8.926;2022-07-23T05:46:05;97208.69;;;23.44;62.31
1401;BME280;46518;48.842;8.926;2022-07-23T05:48:37;97223.28;;;23.34;63.90
1401;BME280;46518;48.842;8.926;2022-07-23T05:51:12;97222.03;;;23.32;64.66
1401;BME280;46518;48.842;8.926;2022-07-23T05:53:40;97208.16;;;23.30;63.24
1401;BME280;46518;48.842;8.926;2022-07-23T05:56:13;97206.03;;;23.14;62.37
1401;BME280;46518;48.842;8.926;2022-07-23T05:58:42;97214.47;;;23.04;57.58
1401;BME280;46518;48.842;8.926;2022-07-23T06:01:12;97201.94;;;23.08;57.57
1401;BME280;46518;48.842;8.926;2022-07-23T06:04:01;97204.50;;;23.04;60.07
1401;BME280;46518;48.842;8.926;2022-07-23T06:06:34;97194.16;;;23.15;59.23
1401;BME280;46518;48.842;8.926;2022-07-23T06:09:03;97188.75;;;23.24;59.64
1401;BME280;46518;48.842;8.926;2022-07-23T06:11:32;97186.19;;;23.28;60.06
1401;BME280;46518;48.842;8.926;2022-07-23T06:14:00;97182.59;;;23.23;60.67
1401;BME280;46518;48.842;8.926;2022-07-23T06:16:44;97190.91;;;23.31;60.37
1401;BME280;46518;48.842;8.926;2022-07-23T06:19:13;97202.44;;;23.31;60.40
1401;BME280;46518;48.842;8.926;2022-07-23T06:21:45;97219.16;;;23.37;60.46
1401;BME280;46518;48.842;8.926;2022-07-23T06:24:16;97221.22;;;23.31;59.46
1401;BME280;46518;48.842;8.926;2022-07-23T06:26:45;97214.03;;;23.23;59.53
1401;BME280;46518;48.842;8.926;2022-07-23T06:29:14;97233.78;;;23.18;58.68
1401;BME280;46518;48.842;8.926;2022-07-23T06:31:42;97219.66;;;23.09;58.38
1401;BME280;46518;48.842;8.926;2022-07-23T06:34:10;97236.53;;;23.39;57.78
1401;BME280;46518;48.842;8.926;2022-07-23T06:36:40;97243.00;;;23.38;56.55
1401;BME280;46518;48.842;8.926;2022-07-23T06:39:08;97252.59;;;23.18;58.11
1401;BME280;46518;48.842;8.926;2022-07-23T06:41:37;97280.25;;;23.19;57.51
1401;BME280;46518;48.842;8.926;2022-07-23T06:44:06;97278.38;;;23.11;58.23
1401;BME280;46518;48.842;8.926;2022-07-23T06:46:34;97279.22;;;22.85;60.99
1401;BME280;46518;48.842;8.926;2022-07-23T06:49:03;97287.84;;;22.52;65.40
1401;BME280;46518;48.842;8.926;2022-07-23T06:51:33;97285.81;;;22.23;69.11
1401;BME280;46518;48.842;8.926;2022-07-23T06:54:03;97285.81;;;22.14;71.41
1401;BME280;46518;48.842;8.926;2022-07-23T06:56:33;97266.41;;;22.00;72.54
1401;BME280;46518;48.842;8.926;2022-07-23T06:59:06;97245.59;;;21.88;72.64
1401;BME280;46518;48.842;8.926;2022-07-23T07:01:34;97240.09;;;22.02;72.13
1401;BME280;46518;48.842;8.926;2022-07-23T07:04:03;97239.75;;;22.04;74.06
1401;BME280;46518;48.842;8.926;2022-07-23T07:06:31;97266.41;;;21.83;75.36
1401;BME280;46518;48.842;8.926;2022-07-23T07:08:59;97259.78;;;21.71;75.90
1401;BME280;46518;48.842;8.926;2022-07-23T07:11:30;97254.28;;;21.59;75.21
1401;BME280;46518;48.842;8.926;2022-07-23T07:13:58;97262.75;;;21.52;76.99
1401;BME280;46518;48.842;8.926;2022-07-23T07:16:26;97268.28;;;21.65;76.51
1401;BME280;46518;48.842;8.926;2022-07-23T07:18:59;97277.06;;;21.39;80.50
1401;BME280;46518;48.842;8.926;2022-07-23T07:21:28;97266.53;;;21.51;79.13
1401;BME280;46518;48.842;8.926;2022-07-23T07:23:56;97250.16;;;21.53;79.16
1401;BME280;46518;48.842;8.926;2022-07-23T07:26:35;97250.28;;;21.39;78.00
1401;BME280;46518;48.842;8.926;2022-07-23T07:29:05;97260.38;;;21.42;77.47
1401;BME280;46518;48.842;8.926;2022-07-23T07:31:34;97259.97;;;21.26;82.69
1401;BME280;46518;48.842;8.926;2022-07-23T07:34:02;97273.69;;;21.33;80.25
1401;BME280;46518;48.842;8.926;2022-07-23T07:36:33;97275.88;;;21.23;80.73
1401;BME280;46518;48.842;8.926;2022-07-23T07:39:04;97282.34;;;21.30;81.24
1401;BME280;46518;48.842;8.926;2022-07-23T07:41:35;97292.56;;;21.20;81.96
1401;BME280;46518;48.842;8.926;2022-07-23T07:44:04;97299.81;;;21.19;81.30
1401;BME280;46518;48.842;8.926;2022-07-23T07:46:32;97298.25;;;21.27;83.48
1401;BME280;46518;48.842;8.926;2022-07-23T07:49:10;97288.19;;;21.32;82.19
1401;BME280;46518;48.842;8.926;2022-07-23T07:51:42;97282.88;;;21.41;84.80
1401;BME280;46518;48.842;8.926;2022-07-23T07:54:11;97285.09;;;21.48;83.77
1401;BME280;46518;48.842;8.926;2022-07-23T07:56:41;97276.97;;;21.62;81.79
1401;BME280;46518;48.842;8.926;2022-07-23T07:59:10;97283.09;;;21.62;81.56
1401;BME280;46518;48.842;8.926;2022-07-23T08:01:39;97289.88;;;21.68;81.40
1401;BME280;46518;48.842;8.926;2022-07-23T08:04:07;97291.63;;;21.73;80.81
1401;BME280;46518;48.842;8.926;2022-07-23T08:06:36;97291.47;;;21.87;81.51
1401;BME280;46518;48.842;8.926;2022-07-23T08:09:05;97293.53;;;21.98;82.55
1401;BME280;46518;48.842;8.926;2022-07-23T08:11:33;97294.97;;;22.05;74.73
1401;BME280;46518;48.842;8.926;2022-07-23T08:14:03;97291.97;;;22.24;75.90
1401;BME280;46518;48.842;8.926;2022-07-23T08:16:32;97293.72;;;22.37;74.72
1401;BME280;46518;48.842;8.926;2022-07-23T08:19:21;97285.03;;;22.40;71.98
1401;BME280;46518;48.842;8.926;2022-07-23T08:21:49;97297.47;;;22.53;73.78
1401;BME280;46518;48.842;8.926;2022-07-23T08:24:17;97297.63;;;22.57;69.21
1401;BME280;46518;48.842;8.926;2022-07-23T08:26:46;97305.16;;;22.64;67.59
1401;BME280;46518;48.842;8.926;2022-07-23T08:29:15;97308.78;;;22.68;67.56
1401;BME280;46518;48.842;8.926;2022-07-23T08:31:48;97305.81;;;22.69;68.24
1401;BME280;46518;48.842;8.926;2022-07-23T08:34:16;97308.63;;;22.81;67.19
1401;BME280;46518;48.842;8.926;2022-07-23T08:36:45;97315.19;;;22.93;64.54
1401;BME280;46518;48.842;8.926;2022-07-23T08:39:13;97301.78;;;22.93;63.64
1401;BME280;46518;48.842;8.926;2022-07-23T08:41:42;97297.34;;;23.06;63.72
1401;BME280;46518;48.842;8.926;2022-07-23T08:44:11;97298.13;;;23.06;64.50
1401;BME280;46518;48.842;8.926;2022-07-23T08:46:43;97295.91;;;23.08;64.60
1401;BME280;46518;48.842;8.926;2022-07-23T08:49:12;97294.28;;;23.24;64.03
1401;BME280;46518;48.842;8.926;2022-07-23T08:51:41;97297.53;;;23.39;61.32
1401;BME280;46518;48.842;8.926;2022-07-23T08:54:10;97299.69;;;23.45;60.68
1401;BME280;46518;48.842;8.926;2022-07-23T08:56:39;97292.69;;;23.53;61.75
1401;BME280;46518;48.842;8.926;2022-07-23T08:59:08;97294.00;;;23.68;62.52
1401;BME280;46518;48.842;8.926;2022-07-23T09:01:41;97293.66;;;23.78;63.03
1401;BME280;46518;48.842;8.926;2022-07-23T09:04:11;97291.69;;;23.66;63.43
1401;BME280;46518;48.842;8.926;2022-07-23T09:06:40;97291.94;;;23.74;63.19
1401;BME280;46518;48.842;8.926;2022-07-23T09:09:17;97295.19;;;23.88;62.23
1401;BME280;46518;48.842;8.926;2022-07-23T09:11:46;97295.53;;;23.86;58.52
1401;BME280;46518;48.842;8.926;2022-07-23T09:14:14;97298.13;;;23.95;58.45
1401;BME280;46518;48.842;8.926;2022-07-23T09:16:44;97289.66;;;24.05;55.65
1401;BME280;46518;48.842;8.926;2022-07-23T09:19:13;97291.63;;;24.17;56.80
1401;BME280;46518;48.842;8.926;2022-07-23T09:21:41;97295.41;;;24.37;56.39
1401;BME280;46518;48.842;8.926;2022-07-23T09:24:11;97289.47;;;24.31;56.03
1401;BME280;46518;48.842;8.926;2022-07-23T09:26:42;97294.88;;;24.44;54.39
1401;BME280;46518;48.842;8.926;2022-07-23T09:29:13;97293.38;;;24.55;56.76
1401;BME280;46518;48.842;8.926;2022-07-23T09:31:47;97290.56;;;24.51;56.71
1401;BME280;46518;48.842;8.926;2022-07-23T09:34:18;97298.81;;;24.80;55.40
1401;BME280;46518;48.842;8.926;2022-07-23T09:36:51;97290.84;;;24.83;55.09
1401;BME280;46518;48.842;8.926;2022-07-23T09:39:27;97298.94;;;24.95;56.14
1401;BME280;46518;48.842;8.926;2022-07-23T09:41:57;97296.47;;;24.90;54.67
1401;BME280;46518;48.842;8.926;2022-07-23T09:44:26;97297.47;;;24.86;55.88
1401;BME280;46518;48.842;8.926;2022-07-23T09:46:59;97293.69;;;24.99;52.09
1401;BME280;46518;48.842;8.926;2022-07-23T09:49:28;97283.03;;;25.03;53.05
1401;BME280;46518;48.842;8.926;2022-07-23T09:51:58;97292.94;;;25.23;51.96
1401;BME280;46518;48.842;8.926;2022-07-23T09:54:30;97290.94;;;25.45;50.45
1401;BME280;46518;48.842;8.926;2022-07-23T09:57:01;97283.38;;;25.50;49.19
1401;BME280;46518;48.842;8.926;2022-07-23T09:59:33;97300.91;;;25.56;48.76
1401;BME280;46518;48.842;8.926;2022-07-23T10:02:05;97301.78;;;25.48;51.94
1401;BME280;46518;48.842;8.926;2022-07-23T10:04:44;97298.53;;;25.55;49.46
1401;BME280;46518;48.842;8.926;2022-07-23T10:07:41;97287.69;;;25.39;52.56
1401;BME280;46518;48.842;8.926;2022-07-23T10:10:35;97297.22;;;25.36;51.07
1401;BME280;46518;48.842;8.926;2022-07-23T10:13:13;97298.31;;;25.35;49.40
1401;BME280;46518;48.842;8.926;2022-07-23T10:16:01;97303.72;;;25.35;51.01
1401;BME280;46518;48.842;8.926;2022-07-23T10:18:31;97301.69;;;25.45;46.57
1401;BME280;46518;48.842;8.926;2022-07-23T10:21:00;97298.00;;;25.49;46.47
1401;BME280;46518;48.842;8.926;2022-07-23T10:23:35;97297.75;;;25.54;48.38
1401;BME280;46518;48.842;8.926;2022-07-23T10:26:12;97295.28;;;25.61;48.58
1401;BME280;46518;48.842;8.926;2022-07-23T10:28:56;97297.53;;;25.59;48.19
1401;BME280;46518;48.842;8.926;2022-07-23T10:31:37;97296.53;;;25.64;46.46
1401;BME280;46518;48.842;8.926;2022-07-23T10:34:35;97300.09;;;25.68;47.83
1401;BME280;46518;48.842;8.926;2022-07-23T10:37:12;97298.75;;;25.87;45.48
1401;BME280;46518;48.842;8.926;2022-07-23T10:39:47;97285.38;;;25.90;45.53
1401;BME280;46518;48.842;8.926;2022-07-23T10:42:17;97299.63;;;25.91;45.74
1401;BME280;46518;48.842;8.926;2022-07-23T10:44:48;97297.13;;;25.98;45.33
1401;BME280;46518;48.842;8.926;2022-07-23T10:47:23;97291.25;;;26.08;45.03
1401;BME280;46518;48.842;8.926;2022-07-23T10:50:19;97295.84;;;26.20;43.85
1401;BME280;46518;48.842;8.926;2022-07-23T10:53:16;97293.47;;;26.18;45.54
1401;BME280;46518;48.842;8.926;2022-07-23T10:55:47;97284.09;;;26.28;46.21
1401;BME280;46518;48.842;8.926;2022-07-23T10:58:21;97296.69;;;26.36;46.80
1401;BME280;46518;48.842;8.926;2022-07-23T11:00:49;97292.41;;;26.35;48.00
1401;BME280;46518;48.842;8.926;2022-07-23T11:03:36;97298.16;;;26.34;46.99
1401;BME280;46518;48.842;8.926;2022-07-23T11:06:06;97297.22;;;26.42;45.68
1401;BME280;46518;48.842;8.926;2022-07-23T11:08:34;97286.50;;;26.45;45.66
1401;BME280;46518;48.842;8.926;2022-07-23T11:11:10;97289.56;;;26.44;46.28
1401;BME280;46518;48.842;8.926;2022-07-23T11:13:45;97295.31;;;26.42;44.36
1401;BME280;46518;48.842;8.926;2022-07-23T11:16:19;97288.03;;;26.31;46.34
1401;BME280;46518;48.842;8.926;2022-07-23T11:19:05;97292.25;;;26.44;47.03
1401;BME280;46518;48.842;8.926;2022-07-23T11:21:49;97294.34;;;26.51;43.98
1401;BME280;46518;48.842;8.926;2022-07-23T11:24:22;97292.25;;;26.56;42.92
1401;BME280;46518;48.842;8.926;2022-07-23T11:26:54;97289.38;;;26.37;44.34
1401;BME280;46518;48.842;8.926;2022-07-23T11:29:45;97281.63;;;26.63;46.13
1401;BME280;46518;48.842;8.926;2022-07-23T11:32:36;97280.31;;;26.73;44.06
1401;BME280;46518;48.842;8.926;2022-07-23T11:35:25;97280.16;;;26.66;45.73
1401;BME280;46518;48.842;8.926;2022-07-23T11:38:03;97286.41;;;26.70;45.60
1401;BME280;46518;48.842;8.926;2022-07-23T11:40:33;97276.13;;;26.76;45.62
1401;BME280;46518;48.842;8.926;2022-07-23T11:43:04;97276.84;;;26.88;44.64
1401;BME280;46518;48.842;8.926;2022-07-23T11:45:34;97277.13;;;26.83;46.27
1401;BME280;46518;48.842;8.926;2022-07-23T11:48:05;97276.50;;;26.90;44.94
1401;BME280;46518;48.842;8.926;2022-07-23T11:50:34;97281.03;;;26.86;44.87
1401;BME280;46518;48.842;8.926;2022-07-23T11:53:04;97281.28;;;26.97;45.12
1401;BME280;46518;48.842;8.926;2022-07-23T11:55:32;97271.59;;;26.96;45.63
1401;BME280;46518;48.842;8.926;2022-07-23T11:58:01;97273.34;;;26.88;46.15
1401;BME280;46518;48.842;8.926;2022-07-23T12:00:30;97267.88;;;26.84;45.72
1401;BME280;46518;48.842;8.926;2022-07-23T12:03:06;97273.16;;;26.81;44.47
1401;BME280;46518;48.842;8.926;2022-07-23T12:05:36;97277.19;;;26.87;44.95
1401;BME280;46518;48.842;8.926;2022-07-23T12:08:08;97271.09;;;26.90;44.91
1401;BME280;46518;48.842;8.926;2022-07-23T12:10:39;97265.25;;;26.88;47.40
1401;BME280;46518;48.842;8.926;2022-07-23T12:13:10;97268.41;;;27.06;45.45
1401;BME280;46518;48.842;8.926;2022-07-23T12:15:41;97271.47;;;27.20;45.10
1401;BME280;46518;48.842;8.926;2022-07-23T12:18:14;97260.38;;;27.41;44.55
1401;BME280;46518;48.842;8.926;2022-07-23T12:20:44;97270.25;;;27.53;43.00
1401;BME280;46518;48.842;8.926;2022-07-23T12:23:15;97276.31;;;27.46;43.82
1401;BME280;46518;48.842;8.926;2022-07-23T12:25:48;97262.13;;;27.34;40.94
1401;BME280;46518;48.842;8.926;2022-07-23T12:28:18;97258.13;;;27.27;43.11
1401;BME280;46518;48.842;8.926;2022-07-23T12:30:48;97257.00;;;27.28;41.88
1401;BME280;46518;48.842;8.926;2022-07-23T12:33:21;97257.13;;;27.36;42.50
1401;BME280;46518;48.842;8.926;2022-07-23T12:35:52;97259.53;;;27.21;42.48
1401;BME280;46518;48.842;8.926;2022-07-23T12:38:24;97249.22;;;27.11;44.06
1401;BME280;46518;48.842;8.926;2022-07-23T12:40:53;97261.66;;;27.16;42.68
1401;BME280;46518;48.842;8.926;2022-07-23T12:43:23;97262.66;;;27.23;42.32
1401;BME280;46518;48.842;8.926;2022-07-23T12:45:55;97267.19;;;27.19;42.74
1401;BME280;46518;48.842;8.926;2022-07-23T12:48:25;97266.06;;;27.20;42.95
1401;BME280;46518;48.842;8.926;2022-07-23T12:50:58;97267.78;;;27.13;43.91
1401;BME280;46518;48.842;8.926;2022-07-23T12:53:30;97265.72;;;27.22;43.29
1401;BME280;46518;48.842;8.926;2022-07-23T12:56:01;97260.38;;;27.25;42.50
1401;BME280;46518;48.842;8.926;2022-07-23T12:58:44;97253.94;;;27.30;42.67
1401;BME280;46518;48.842;8.926;2022-07-23T13:01:25;97270.91;;;27.46;41.96
1401;BME280;46518;48.842;8.926;2022-07-23T13:03:57;97251.56;;;27.13;41.67
1401;BME280;46518;48.842;8.926;2022-07-23T13:06:27;97258.13;;;27.27;42.54
1401;BME280;46518;48.842;8.926;2022-07-23T13:08:58;97267.25;;;27.23;40.29
1401;BME280;46518;48.842;8.926;2022-07-23T13:11:29;97261.25;;;27.29;40.40
1401;BME280;46518;48.842;8.926;2022-07-23T13:13:57;97268.75;;;27.36;41.77
1401;BME280;46518;48.842;8.926;2022-07-23T13:16:27;97266.13;;;27.40;42.98
1401;BME280;46518;48.842;8.926;2022-07-23T13:18:57;97266.59;;;27.61;42.13
1401;BME280;46518;48.842;8.926;2022-07-23T13:21:28;97268.22;;;27.82;41.89
1401;BME280;46518;48.842;8.926;2022-07-23T13:23:58;97265.34;;;27.74;41.93
1401;BME280;46518;48.842;8.926;2022-07-23T13:26:27;97259.28;;;27.81;42.31
1401;BME280;46518;48.842;8.926;2022-07-23T13:28:55;97267.31;;;27.93;41.40
1401;BME280;46518;48.842;8.926;2022-07-23T13:31:24;97265.16;;;28.03;40.18